createdAt,value
2023-05-02T00:00:05.019Z,97796.63
2023-05-02T00:02:32.636Z,97801.81
2023-05-02T00:05:00.396Z,97797.66
2023-05-02T00:07:29.238Z,97795.81
2023-05-02T00:09:56.804Z,97796.75
2023-05-02T00:12:24.251Z,97785.03
2023-05-02T00:14:51.798Z,97787.91
2023-05-02T00:17:19.919Z,97792.03
2023-05-02T00:19:47.787Z,97799.44
2023-05-02T00:22:15.286Z,97793.44
2023-05-02T00:24:44.114Z,97793.84
2023-05-02T00:27:11.538Z,97794.84
2023-05-02T00:29:39.032Z,97789.22
2023-05-02T00:32:07.039Z,97791.56
2023-05-02T00:34:34.697Z,97796.00
2023-05-02T00:37:02.142Z,97787.59
2023-05-02T00:39:29.721Z,97792.13
2023-05-02T00:42:01.846Z,97788.47
2023-05-02T00:44:29.725Z,97786.09
2023-05-02T00:46:57.804Z,97794.81
2023-05-02T00:49:25.673Z,97793.53
2023-05-02T00:51:54.377Z,97792.72
2023-05-02T00:54:21.996Z,97789.28
2023-05-02T00:56:49.465Z,97792.25
2023-05-02T00:59:19.134Z,97796.50
2023-05-02T01:02:01.536Z,97792.16
2023-05-02T01:04:38.684Z,97792.34
2023-05-02T01:07:27.581Z,97793.38
2023-05-02T01:10:09.356Z,97798.72
2023-05-02T01:12:42.834Z,97805.31
2023-05-02T01:15:17.041Z,97799.28
2023-05-02T01:17:46.668Z,97800.50
2023-05-02T01:20:17.331Z,97799.03
2023-05-02T01:22:45.628Z,97800.91
2023-05-02T01:25:23.561Z,97805.75
2023-05-02T01:27:58.791Z,97802.97
2023-05-02T01:30:30.779Z,97791.47
2023-05-02T01:33:00.582Z,97804.31
2023-05-02T01:35:29.015Z,97794.59
2023-05-02T01:37:58.988Z,97802.97
2023-05-02T01:40:27.089Z,97803.19
2023-05-02T01:42:56.058Z,97803.03
2023-05-02T01:45:24.885Z,97797.22
2023-05-02T01:47:55.083Z,97802.75
2023-05-02T01:50:26.794Z,97798.59
2023-05-02T01:52:56.065Z,97803.31
2023-05-02T01:55:26.707Z,97812.38
2023-05-02T01:57:57.653Z,97811.19
2023-05-02T02:00:26.551Z,97821.56
2023-05-02T02:02:57.982Z,97819.78
2023-05-02T02:05:26.475Z,97810.97
2023-05-02T02:07:53.967Z,97812.38
2023-05-02T02:10:22.307Z,97814.78
2023-05-02T02:12:54.044Z,97815.16
2023-05-02T02:15:28.222Z,97812.28
2023-05-02T02:18:01.196Z,97818.75
2023-05-02T02:20:30.193Z,97809.34
2023-05-02T02:22:59.092Z,97814.50
2023-05-02T02:25:27.915Z,97812.47
2023-05-02T02:27:55.612Z,97816.13
2023-05-02T02:30:23.181Z,97823.34
2023-05-02T02:32:50.969Z,97822.88
2023-05-02T02:35:20.377Z,97827.09
2023-05-02T02:37:52.784Z,97836.16
2023-05-02T02:40:26.001Z,97827.97
2023-05-02T02:43:00.966Z,97837.81
2023-05-02T02:45:36.525Z,97840.66
2023-05-02T02:48:12.037Z,97854.25
2023-05-02T02:50:53.876Z,97853.88
2023-05-02T02:53:27.137Z,97862.25
2023-05-02T02:56:00.015Z,97863.81
2023-05-02T02:58:37.885Z,97869.28
2023-05-02T03:01:08.974Z,97863.09
2023-05-02T03:03:37.202Z,97874.59
2023-05-02T03:06:06.561Z,97872.03
2023-05-02T03:08:40.091Z,97898.97
2023-05-02T03:11:08.055Z,97888.78
2023-05-02T03:13:36.117Z,97883.00
2023-05-02T03:16:31.800Z,97896.44
2023-05-02T03:18:59.576Z,97892.03
2023-05-02T03:21:31.450Z,97890.75
2023-05-02T03:24:00.020Z,97896.28
2023-05-02T03:26:27.717Z,97892.47
2023-05-02T03:28:55.402Z,97897.66
2023-05-02T03:31:25.486Z,97900.50
2023-05-02T03:33:54.385Z,97901.53
2023-05-02T03:36:22.126Z,97899.69
2023-05-02T03:38:51.124Z,97900.03
2023-05-02T03:41:20.884Z,97906.44
2023-05-02T03:43:48.350Z,97909.44
2023-05-02T03:46:15.853Z,97904.63
2023-05-02T03:48:45.496Z,97904.56
2023-05-02T03:51:13.358Z,97902.06
2023-05-02T03:53:40.818Z,97907.78
2023-05-02T03:56:09.828Z,97915.53
2023-05-02T03:58:37.466Z,97913.16
2023-05-02T04:01:04.994Z,97915.63
2023-05-02T04:03:32.539Z,97914.63
2023-05-02T04:06:00.029Z,97917.38
2023-05-02T04:08:27.524Z,97920.59
2023-05-02T04:10:54.950Z,97920.88
2023-05-02T04:13:23.719Z,97927.63
2023-05-02T04:15:51.295Z,97928.59
2023-05-02T04:18:18.744Z,97929.13
2023-05-02T04:20:46.212Z,97929.91
2023-05-02T04:23:14.263Z,97932.66
2023-05-02T04:25:41.714Z,97930.28
2023-05-02T04:28:09.278Z,97943.28
2023-05-02T04:30:38.424Z,97946.03
2023-05-02T04:33:05.969Z,97947.94
2023-05-02T04:35:33.412Z,97950.06
2023-05-02T04:38:00.922Z,97951.78
2023-05-02T04:40:28.434Z,97952.25
2023-05-02T04:42:55.890Z,97955.69
2023-05-02T04:45:23.395Z,97969.69
2023-05-02T04:47:52.350Z,97965.06
2023-05-02T04:50:19.841Z,97969.50
2023-05-02T04:52:47.309Z,97963.97
2023-05-02T04:55:14.853Z,97968.59
2023-05-02T04:57:42.304Z,97971.75
2023-05-02T05:00:10.647Z,97968.03
2023-05-02T05:02:38.848Z,97971.56
2023-05-02T05:05:08.723Z,97984.56
2023-05-02T05:07:36.247Z,97984.41
2023-05-02T05:10:03.947Z,97985.34
2023-05-02T05:12:31.502Z,98001.84
2023-05-02T05:14:58.996Z,97985.41
2023-05-02T05:17:26.652Z,98009.50
2023-05-02T05:19:54.180Z,97999.84
2023-05-02T05:22:22.960Z,98008.63
2023-05-02T05:24:54.494Z,97992.72
2023-05-02T05:27:23.644Z,97998.59
2023-05-02T05:29:51.163Z,98002.28
2023-05-02T05:32:18.655Z,98000.69
2023-05-02T05:34:46.095Z,98002.84
2023-05-02T05:37:13.659Z,98011.03
2023-05-02T05:39:42.420Z,98014.91
2023-05-02T05:42:10.038Z,98029.16
2023-05-02T05:44:37.499Z,98020.31
2023-05-02T05:47:05.220Z,98031.78
2023-05-02T05:49:32.716Z,98041.88
2023-05-02T05:52:00.205Z,98027.31
2023-05-02T05:54:27.702Z,98026.81
2023-05-02T05:56:56.547Z,98032.81
2023-05-02T05:59:24.046Z,98039.47
2023-05-02T06:01:51.714Z,98029.84
2023-05-02T06:04:19.217Z,98053.94
2023-05-02T06:06:46.792Z,98044.50
2023-05-02T06:09:14.340Z,98049.56
2023-05-02T06:11:41.763Z,98069.06
2023-05-02T06:14:10.576Z,98066.56
2023-05-02T06:16:38.413Z,98078.75
2023-05-02T06:19:05.941Z,98084.88
2023-05-02T06:21:33.390Z,98083.91
2023-05-02T06:24:00.922Z,98089.72
2023-05-02T06:26:28.470Z,98097.84
2023-05-02T06:28:56.049Z,98100.84
2023-05-02T06:31:25.374Z,98105.66
2023-05-02T06:33:52.881Z,98108.31
2023-05-02T06:36:20.338Z,98110.16
2023-05-02T06:38:48.768Z,98117.00
2023-05-02T06:41:18.233Z,98120.81
2023-05-02T06:43:46.003Z,98122.56
2023-05-02T06:46:13.562Z,98128.63
2023-05-02T06:48:42.887Z,98131.16
2023-05-02T06:51:10.947Z,98137.81
2023-05-02T06:53:38.394Z,98132.91
2023-05-02T06:56:06.614Z,98140.03
2023-05-02T06:58:34.097Z,98142.16
2023-05-02T07:01:01.586Z,98144.13
2023-05-02T07:03:29.294Z,98149.66
2023-05-02T07:05:58.247Z,98152.88
2023-05-02T07:08:25.816Z,98163.06
2023-05-02T07:10:53.283Z,98154.00
2023-05-02T07:13:20.795Z,98164.47
2023-05-02T07:15:48.308Z,98159.47
2023-05-02T07:18:15.810Z,98162.13
2023-05-02T07:20:43.348Z,98164.09
2023-05-02T07:23:12.208Z,98168.44
2023-05-02T07:25:40.019Z,98174.06
2023-05-02T07:28:07.645Z,98170.94
2023-05-02T07:30:35.231Z,98175.16
2023-05-02T07:33:02.781Z,98182.56
2023-05-02T07:35:30.411Z,98187.72
2023-05-02T07:37:58.123Z,98186.44
2023-05-02T07:40:28.336Z,98187.09
2023-05-02T07:42:55.798Z,98187.09
2023-05-02T07:45:23.306Z,98182.03
2023-05-02T07:47:50.958Z,98189.97
2023-05-02T07:50:18.507Z,98196.72
2023-05-02T07:52:46.027Z,98193.97
2023-05-02T07:55:13.522Z,98206.63
2023-05-02T07:57:42.551Z,98210.03
2023-05-02T08:00:11.586Z,98203.63
2023-05-02T08:02:39.189Z,98200.78
2023-05-02T08:05:07.870Z,98208.28
2023-05-02T08:07:37.179Z,98206.28
2023-05-02T08:10:05.357Z,98208.03
2023-05-02T08:12:32.848Z,98218.81
2023-05-02T08:15:06.128Z,98214.38
2023-05-02T08:17:34.178Z,98207.53
2023-05-02T08:20:02.374Z,98209.84
2023-05-02T08:22:30.184Z,98204.78
2023-05-02T08:24:57.670Z,98210.81
2023-05-02T08:27:25.130Z,98209.72
2023-05-02T08:29:52.718Z,98218.81
2023-05-02T08:32:22.413Z,98223.50
2023-05-02T08:34:49.881Z,98225.41
2023-05-02T08:37:18.320Z,98222.09
2023-05-02T08:39:45.750Z,98214.94
2023-05-02T08:42:13.230Z,98214.75
2023-05-02T08:44:40.853Z,98218.41
2023-05-02T08:47:12.014Z,98209.72
2023-05-02T08:49:42.063Z,98205.66
2023-05-02T08:52:11.794Z,98212.94
2023-05-02T08:54:39.787Z,98219.91
2023-05-02T08:57:07.667Z,98209.19
2023-05-02T08:59:35.303Z,98211.59
2023-05-02T09:02:17.664Z,98212.66
2023-05-02T09:04:52.299Z,98224.06
2023-05-02T09:07:19.656Z,98225.38
2023-05-02T09:09:47.173Z,98224.97
2023-05-02T09:12:16.384Z,98223.97
2023-05-02T09:14:44.694Z,98226.16
2023-05-02T09:17:12.219Z,98225.94
2023-05-02T09:19:39.701Z,98228.44
2023-05-02T09:22:08.487Z,98227.91
2023-05-02T09:24:36.070Z,98226.34
2023-05-02T09:27:04.946Z,98225.69
2023-05-02T09:29:37.790Z,98222.84
2023-05-02T09:32:06.364Z,98227.19
2023-05-02T09:34:37.140Z,98223.47
2023-05-02T09:37:05.786Z,98227.81
2023-05-02T09:39:34.690Z,98232.44
2023-05-02T09:42:03.472Z,98229.69
2023-05-02T09:44:39.132Z,98240.25
2023-05-02T09:47:06.829Z,98238.63
2023-05-02T09:49:42.478Z,98229.84
2023-05-02T09:52:15.107Z,98236.53
2023-05-02T09:54:46.198Z,98235.25
2023-05-02T09:57:14.028Z,98236.53
2023-05-02T09:59:41.844Z,98235.31
2023-05-02T10:02:11.456Z,98239.88
2023-05-02T10:04:40.744Z,98229.00
2023-05-02T10:07:10.701Z,98238.31
2023-05-02T10:09:44.069Z,98228.59
2023-05-02T10:12:16.555Z,98240.00
2023-05-02T10:14:49.591Z,98225.72
2023-05-02T10:17:23.005Z,98240.28
2023-05-02T10:19:56.959Z,98236.56
2023-05-02T10:22:24.879Z,98230.50
2023-05-02T10:24:54.565Z,98230.75
2023-05-02T10:27:23.654Z,98239.44
2023-05-02T10:29:52.487Z,98234.66
2023-05-02T10:32:21.440Z,98229.44
2023-05-02T10:34:51.441Z,98235.72
2023-05-02T10:37:20.348Z,98222.31
2023-05-02T10:39:47.857Z,98223.03
2023-05-02T10:42:15.665Z,98234.06
2023-05-02T10:44:45.069Z,98221.34
2023-05-02T10:47:23.058Z,98218.47
2023-05-02T10:49:52.412Z,98225.53
2023-05-02T10:52:31.549Z,98216.78
2023-05-02T10:55:19.218Z,98218.06
2023-05-02T10:58:24.177Z,98215.13
2023-05-02T11:00:53.140Z,98204.13
2023-05-02T11:03:55.220Z,98190.75
2023-05-02T11:06:22.931Z,98198.94
2023-05-02T11:08:50.784Z,98204.41
2023-05-02T11:11:41.331Z,98201.75
2023-05-02T11:14:09.618Z,98200.34
2023-05-02T11:17:10.846Z,98194.22
2023-05-02T11:20:25.597Z,98199.78
2023-05-02T11:22:54.000Z,98203.28
2023-05-02T11:25:37.404Z,98203.41
2023-05-02T11:28:07.241Z,98203.84
2023-05-02T11:30:43.730Z,98214.66
2023-05-02T11:33:21.701Z,98224.03
2023-05-02T11:35:49.859Z,98213.28
2023-05-02T11:38:20.557Z,98219.72
2023-05-02T11:40:55.951Z,98218.63
2023-05-02T11:43:25.128Z,98223.59
2023-05-02T11:45:53.251Z,98210.06
2023-05-02T11:48:23.962Z,98213.91
2023-05-02T11:50:53.138Z,98218.41
2023-05-02T11:53:23.431Z,98212.59
2023-05-02T11:55:52.060Z,98209.72
2023-05-02T11:58:21.263Z,98226.34
2023-05-02T12:00:49.826Z,98226.53
2023-05-02T12:03:28.085Z,98232.19
2023-05-02T12:05:56.026Z,98234.47
2023-05-02T12:08:26.289Z,98222.22
2023-05-02T12:10:55.337Z,98237.31
2023-05-02T12:13:24.970Z,98245.19
2023-05-02T12:15:53.719Z,98237.94
2023-05-02T12:18:24.324Z,98236.25
2023-05-02T12:20:54.513Z,98244.91
2023-05-02T12:23:24.430Z,98247.38
2023-05-02T12:25:51.988Z,98250.66
2023-05-02T12:28:20.657Z,98255.81
2023-05-02T12:30:49.647Z,98255.38
2023-05-02T12:33:17.837Z,98256.63
2023-05-02T12:35:47.317Z,98266.31
2023-05-02T12:38:18.639Z,98272.03
2023-05-02T12:40:51.000Z,98306.22
2023-05-02T12:43:19.238Z,98342.91
2023-05-02T12:45:48.460Z,98355.78
2023-05-02T12:48:24.378Z,98349.38
2023-05-02T12:50:52.361Z,98359.38
2023-05-02T12:53:38.664Z,98369.38
2023-05-02T12:56:07.267Z,98379.56
2023-05-02T12:58:42.451Z,98373.31
2023-05-02T13:01:10.453Z,98374.31
2023-05-02T13:03:38.697Z,98371.91
2023-05-02T13:06:06.936Z,98378.75
2023-05-02T13:08:36.615Z,98376.09
2023-05-02T13:11:04.968Z,98368.41
2023-05-02T13:13:32.565Z,98356.75
2023-05-02T13:16:00.118Z,98364.09
2023-05-02T13:18:28.377Z,98358.28
2023-05-02T13:20:55.965Z,98349.31
2023-05-02T13:23:23.496Z,98340.78
2023-05-02T13:25:52.271Z,98341.91
2023-05-02T13:28:19.700Z,98343.63
2023-05-02T13:30:47.219Z,98334.16
2023-05-02T13:33:14.746Z,98318.91
2023-05-02T13:35:42.245Z,98318.88
2023-05-02T13:38:09.730Z,98317.56
2023-05-02T13:40:37.409Z,98324.69
2023-05-02T13:43:06.380Z,98314.69
2023-05-02T13:45:34.035Z,98307.31
2023-05-02T13:48:01.497Z,98307.06
2023-05-02T13:50:29.044Z,98306.22
2023-05-02T13:52:56.484Z,98312.16
2023-05-02T13:55:24.190Z,98303.22
2023-05-02T13:57:51.764Z,98307.38
2023-05-02T14:00:20.971Z,98299.28
2023-05-02T14:02:49.089Z,98294.50
2023-05-02T14:05:16.630Z,98291.69
2023-05-02T14:07:44.108Z,98296.72
2023-05-02T14:10:11.767Z,98301.72
2023-05-02T14:12:39.208Z,98286.13
2023-05-02T14:15:07.827Z,98287.38
2023-05-02T14:17:36.647Z,98299.44
2023-05-02T14:20:04.622Z,98296.53
2023-05-02T14:22:32.314Z,98295.28
2023-05-02T14:24:59.780Z,98296.34
2023-05-02T14:27:27.608Z,98284.06
2023-05-02T14:29:55.182Z,98274.09
2023-05-02T14:32:22.801Z,98298.59
2023-05-02T14:34:51.663Z,98280.94
2023-05-02T14:37:19.153Z,98274.50
2023-05-02T14:39:58.116Z,98272.03
2023-05-02T14:42:25.812Z,98279.25
2023-05-02T14:44:53.450Z,98272.38
2023-05-02T14:47:20.881Z,98274.88
2023-05-02T14:49:48.449Z,98280.91
2023-05-02T14:52:17.222Z,98280.66
2023-05-02T14:54:44.710Z,98275.84
2023-05-02T14:57:12.196Z,98280.00
2023-05-02T14:59:40.171Z,98270.91
2023-05-02T15:02:08.289Z,98275.22
2023-05-02T15:04:35.973Z,98280.25
2023-05-02T15:07:03.695Z,98281.06
2023-05-02T15:09:32.542Z,98280.03
2023-05-02T15:11:59.970Z,98276.88
2023-05-02T15:14:27.476Z,98282.94
2023-05-02T15:16:55.121Z,98287.50
2023-05-02T15:19:23.917Z,98292.50
2023-05-02T15:21:53.015Z,98279.00
2023-05-02T15:24:20.586Z,98268.53
2023-05-02T15:26:49.380Z,98281.22
2023-05-02T15:29:17.051Z,98285.84
2023-05-02T15:31:44.734Z,98287.47
2023-05-02T15:34:12.659Z,98282.06
2023-05-02T15:36:40.598Z,98292.44
2023-05-02T15:39:08.486Z,98294.09
2023-05-02T15:41:36.054Z,98279.19
2023-05-02T15:44:05.335Z,98282.84
2023-05-02T15:46:32.782Z,98276.81
2023-05-02T15:49:00.303Z,98289.06
2023-05-02T15:51:27.894Z,98273.84
2023-05-02T15:53:55.827Z,98274.84
2023-05-02T15:56:23.314Z,98282.69
2023-05-02T15:58:50.841Z,98280.16
2023-05-02T16:01:20.950Z,98288.09
2023-05-02T16:03:48.556Z,98286.41
2023-05-02T16:06:17.442Z,98281.56
2023-05-02T16:08:45.016Z,98276.56
2023-05-02T16:11:12.459Z,98278.00
2023-05-02T16:13:40.351Z,98286.06
2023-05-02T16:16:08.506Z,98286.50
2023-05-02T16:18:37.368Z,98291.06
2023-05-02T16:21:05.370Z,98293.41
2023-05-02T16:23:32.922Z,98286.75
2023-05-02T16:26:01.521Z,98281.31
2023-05-02T16:28:29.288Z,98279.66
2023-05-02T16:30:57.013Z,98289.28
2023-05-02T16:33:24.577Z,98288.47
2023-05-02T16:36:02.661Z,98295.28
2023-05-02T16:38:30.382Z,98289.88
2023-05-02T16:40:58.305Z,98283.03
2023-05-02T16:43:25.937Z,98285.94
2023-05-02T16:46:00.750Z,98294.94
2023-05-02T16:48:28.380Z,98297.22
2023-05-02T16:50:55.890Z,98296.56
2023-05-02T16:53:25.050Z,98304.09
2023-05-02T16:55:52.523Z,98308.44
2023-05-02T16:58:20.212Z,98302.63
2023-05-02T17:00:47.670Z,98304.75
2023-05-02T17:03:15.255Z,98305.41
2023-05-02T17:05:42.815Z,98308.53
2023-05-02T17:08:11.032Z,98326.00
2023-05-02T17:10:39.907Z,98329.13
2023-05-02T17:13:07.590Z,98337.44
2023-05-02T17:15:38.358Z,98329.53
2023-05-02T17:18:06.034Z,98345.50
2023-05-02T17:20:33.732Z,98352.97
2023-05-02T17:23:02.132Z,98369.56
2023-05-02T17:25:29.666Z,98367.63
2023-05-02T17:27:58.513Z,98366.31
2023-05-02T17:30:26.079Z,98362.34
2023-05-02T17:32:53.636Z,98370.41
2023-05-02T17:35:21.254Z,98377.63
2023-05-02T17:37:48.739Z,98393.53
2023-05-02T17:40:16.803Z,98391.81
2023-05-02T17:42:45.381Z,98395.97
2023-05-02T17:45:14.915Z,98416.16
2023-05-02T17:47:42.395Z,98414.94
2023-05-02T17:50:10.560Z,98410.16
2023-05-02T17:52:38.690Z,98422.19
2023-05-02T17:55:08.298Z,98428.31
2023-05-02T17:57:46.219Z,98419.53
2023-05-02T18:00:16.535Z,98426.84
2023-05-02T18:02:44.294Z,98429.91
2023-05-02T18:05:12.326Z,98431.69
2023-05-02T18:07:39.803Z,98435.72
2023-05-02T18:10:08.363Z,98441.59
2023-05-02T18:12:36.018Z,98431.16
2023-05-02T18:15:05.108Z,98429.88
2023-05-02T18:17:34.455Z,98437.91
2023-05-02T18:20:04.223Z,98442.88
2023-05-02T18:22:32.246Z,98431.94
2023-05-02T18:24:59.822Z,98433.22
2023-05-02T18:27:27.335Z,98438.94
2023-05-02T18:29:55.324Z,98433.41
2023-05-02T18:32:22.806Z,98430.81
2023-05-02T18:34:51.691Z,98433.41
2023-05-02T18:37:19.152Z,98432.03
2023-05-02T18:39:46.597Z,98434.44
2023-05-02T18:42:14.699Z,98446.00
2023-05-02T18:44:42.144Z,98448.31
2023-05-02T18:47:09.728Z,98446.28
2023-05-02T18:49:37.186Z,98448.25
2023-05-02T18:52:06.168Z,98451.47
2023-05-02T18:54:33.927Z,98459.41
2023-05-02T18:57:01.955Z,98458.63
2023-05-02T18:59:29.656Z,98465.88
2023-05-02T19:01:58.163Z,98462.75
2023-05-02T19:04:26.014Z,98468.13
2023-05-02T19:06:53.545Z,98468.13
2023-05-02T19:09:22.419Z,98475.13
2023-05-02T19:11:49.890Z,98470.31
2023-05-02T19:14:17.386Z,98490.22
2023-05-02T19:16:44.867Z,98500.03
2023-05-02T19:19:12.336Z,98494.41
2023-05-02T19:21:39.869Z,98487.63
2023-05-02T19:24:07.631Z,98499.75
2023-05-02T19:26:36.645Z,98502.56
2023-05-02T19:29:04.107Z,98496.13
2023-05-02T19:31:31.646Z,98502.94
2023-05-02T19:34:00.062Z,98505.63
2023-05-02T19:36:28.270Z,98509.91
2023-05-02T19:38:57.923Z,98510.41
2023-05-02T19:41:25.697Z,98520.72
2023-05-02T19:43:55.549Z,98528.53
2023-05-02T19:46:23.166Z,98536.69
2023-05-02T19:48:50.675Z,98530.28
2023-05-02T19:51:22.042Z,98539.09
2023-05-02T19:53:49.562Z,98559.91
2023-05-02T19:56:18.307Z,98561.53
2023-05-02T19:58:45.794Z,98562.97
2023-05-02T20:01:14.847Z,98557.44
2023-05-02T20:03:42.626Z,98567.22
2023-05-02T20:06:10.304Z,98571.16
2023-05-02T20:08:37.859Z,98561.31
2023-05-02T20:11:05.423Z,98562.06
2023-05-02T20:13:32.927Z,98559.22
2023-05-02T20:16:00.592Z,98567.13
2023-05-02T20:18:29.463Z,98570.25
2023-05-02T20:20:56.911Z,98571.34
2023-05-02T20:23:24.377Z,98581.28
2023-05-02T20:25:51.933Z,98586.16
2023-05-02T20:28:19.411Z,98581.47
2023-05-02T20:30:46.870Z,98585.34
2023-05-02T20:33:16.716Z,98579.69
2023-05-02T20:35:46.573Z,98567.56
2023-05-02T20:38:14.718Z,98571.06
2023-05-02T20:40:42.489Z,98574.44
2023-05-02T20:43:09.958Z,98586.47
2023-05-02T20:45:38.723Z,98576.34
2023-05-02T20:48:06.848Z,98581.19
2023-05-02T20:50:34.361Z,98583.59
2023-05-02T20:53:04.425Z,98574.75
2023-05-02T20:55:31.972Z,98573.13
2023-05-02T20:57:59.505Z,98571.16
2023-05-02T21:00:27.560Z,98575.06
2023-05-02T21:02:55.041Z,98576.72
2023-05-02T21:05:22.553Z,98581.09
2023-05-02T21:07:49.992Z,98581.38
2023-05-02T21:10:18.970Z,98587.69
2023-05-02T21:12:46.429Z,98585.44
2023-05-02T21:15:14.875Z,98583.03
2023-05-02T21:17:42.474Z,98587.03
2023-05-02T21:20:10.964Z,98580.53
2023-05-02T21:22:38.279Z,98604.03
2023-05-02T21:25:06.653Z,98608.25
2023-05-02T21:27:35.543Z,98614.53
2023-05-02T21:30:03.325Z,98594.53
2023-05-02T21:32:31.046Z,98602.44
2023-05-02T21:34:58.545Z,98603.16
2023-05-02T21:37:25.985Z,98613.78
2023-05-02T21:39:53.475Z,98621.41
2023-05-02T21:42:20.982Z,98629.38
2023-05-02T21:44:50.413Z,98626.94
2023-05-02T21:47:17.861Z,98629.69
2023-05-02T21:49:45.440Z,98628.06
2023-05-02T21:52:12.903Z,98634.03
2023-05-02T21:54:40.535Z,98622.13
2023-05-02T21:57:07.980Z,98636.03
2023-05-02T21:59:35.771Z,98639.03
2023-05-02T22:02:04.666Z,98632.47
2023-05-02T22:04:32.100Z,98636.38
2023-05-02T22:06:59.680Z,98632.31
2023-05-02T22:09:27.106Z,98621.78
2023-05-02T22:11:54.545Z,98631.88
2023-05-02T22:14:25.422Z,98636.22
2023-05-02T22:16:58.441Z,98640.53
2023-05-02T22:19:27.379Z,98630.44
2023-05-02T22:21:57.327Z,98629.94
2023-05-02T22:24:24.868Z,98633.19
2023-05-02T22:26:52.324Z,98639.84
2023-05-02T22:29:19.784Z,98634.69
2023-05-02T22:31:47.340Z,98641.06
2023-05-02T22:34:14.827Z,98646.56
2023-05-02T22:36:43.659Z,98643.06
2023-05-02T22:39:14.433Z,98648.41
2023-05-02T22:41:42.228Z,98646.88
2023-05-02T22:44:10.319Z,98641.94
2023-05-02T22:46:38.880Z,98646.19
2023-05-02T22:49:09.442Z,98648.53
2023-05-02T22:51:37.759Z,98656.06
2023-05-02T22:54:07.912Z,98655.47
2023-05-02T22:56:35.785Z,98658.13
2023-05-02T22:59:03.310Z,98656.63
2023-05-02T23:01:30.830Z,98660.81
2023-05-02T23:03:58.370Z,98663.91
2023-05-02T23:06:28.368Z,98659.13
2023-05-02T23:08:55.826Z,98661.88
2023-05-02T23:11:25.845Z,98657.47
2023-05-02T23:13:53.283Z,98662.16
2023-05-02T23:16:20.812Z,98676.50
2023-05-02T23:18:48.480Z,98667.25
2023-05-02T23:21:16.368Z,98667.59
2023-05-02T23:23:44.447Z,98667.22
2023-05-02T23:26:11.926Z,98663.31
2023-05-02T23:28:40.879Z,98661.81
2023-05-02T23:31:08.844Z,98668.53
2023-05-02T23:33:37.162Z,98674.38
2023-05-02T23:36:06.752Z,98666.88
2023-05-02T23:38:36.974Z,98673.22
2023-05-02T23:41:04.794Z,98676.88
2023-05-02T23:43:32.409Z,98662.91
2023-05-02T23:46:02.023Z,98657.31
2023-05-02T23:48:29.456Z,98661.88
2023-05-02T23:50:56.922Z,98668.03
2023-05-02T23:53:24.377Z,98663.00
2023-05-02T23:55:54.587Z,98666.16
2023-05-02T23:58:22.028Z,98662.91
